Time;durP1;ratioP1;P1;durP2;ratioP2;P2;SDS_P1;SDS_P2;PMS_P1;PMS_P2;Temp;Humidity;BMP_temperature;BMP_pressure;BME280_temperature;BME280_humidity;BME280_pressure;Samples;Min_cycle;Max_cycle;Signal;HPM_P1;HPM_P2
2022/01/18 00:01:39;;;;;;;;;;;1.50;99.90;;;;;;5034646;28;19948;-71
2022/01/18 00:04:06;;;;;;;;;;;1.50;99.90;;;;;;5034853;28;19974;-71
2022/01/18 00:06:32;;;;;;;;;;;1.60;99.90;;;;;;5034614;28;20004;-71
2022/01/18 00:08:58;;;;;;;;;;;1.50;99.90;;;;;;5034850;28;19963;-71
2022/01/18 00:11:26;;;;;;;;;;;1.60;99.90;;;;;;5034651;28;19978;-71
2022/01/18 00:13:59;;;;;;;;;;;1.60;99.90;;;;;;5033487;28;19978;-71
2022/01/18 00:18:52;;;;;;;;;;;1.60;99.90;;;;;;5034824;28;20015;-71
2022/01/18 00:21:28;;;;;;;;;;;1.60;99.90;;;;;;5034474;28;19995;-71
2022/01/18 00:23:57;;;;;;;;;;;1.70;99.90;;;;;;5033101;28;20392;-71
2022/01/18 00:26:26;;;;;;;;;;;1.80;99.90;;;;;;5034251;28;19913;-71
2022/01/18 00:28:56;;;;;;;;;;;1.90;99.90;;;;;;5033994;28;19949;-71
2022/01/18 00:31:43;;;;;;;;;;;2.00;99.90;;;;;;5033963;28;20323;-71
2022/01/18 00:34:32;;;;;;;;;;;1.90;99.90;;;;;;5031781;28;19913;-71
2022/01/18 00:37:50;;;;;;;;;;;1.80;99.90;;;;;;5030523;28;20481;-72
2022/01/18 00:39:47;;;;;;;;;;;1.80;99.90;;;;;;5024700;28;19917;-71
2022/01/18 00:42:12;;;;;;;;;;;1.90;99.90;;;;;;5033312;28;20372;-71
2022/01/18 00:44:38;;;;;;;;;;;1.90;99.90;;;;;;5033588;28;19920;-71
2022/01/18 00:47:04;;;;;;;;;;;1.80;99.90;;;;;;5032444;28;20024;-71
2022/01/18 00:49:31;;;;;;;;;;;1.80;99.90;;;;;;5033653;28;19913;-71
2022/01/18 00:51:59;;;;;;;;;;;1.70;99.90;;;;;;5033826;28;19924;-72
2022/01/18 00:54:33;;;;;;;;;;;1.70;99.90;;;;;;5033783;28;20361;-72
2022/01/18 00:56:58;;;;;;;;;;;1.60;99.90;;;;;;5033542;28;19921;-72
2022/01/18 00:59:24;;;;;;;;;;;1.60;99.90;;;;;;5033578;28;19959;-72
2022/01/18 01:01:50;;;;;;;;;;;1.60;99.90;;;;;;5033417;28;20273;-72
2022/01/18 01:04:16;;;;;;;;;;;1.60;99.90;;;;;;5032200;28;20281;-73
2022/01/18 01:06:41;;;;;;;;;;;1.40;99.90;;;;;;5033451;28;19925;-73
2022/01/18 01:09:07;;;;;;;;;;;1.60;99.90;;;;;;5033426;28;19917;-72
2022/01/18 01:11:37;;;;;;;;;;;1.70;99.90;;;;;;5032298;28;19996;-72
2022/01/18 01:14:05;;;;;;;;;;;1.70;99.90;;;;;;5032156;28;19940;-72
2022/01/18 01:35:30;;;;;;;;;;;0.90;99.90;;;;;;5032939;28;20012;-73
2022/01/18 01:43:48;;;;;;;;;;;0.70;99.90;;;;;;5033232;28;19920;-72
2022/01/18 01:46:14;;;;;;;;;;;0.70;99.90;;;;;;5033154;28;19924;-73
2022/01/18 01:48:41;;;;;;;;;;;0.70;99.90;;;;;;5032791;28;19913;-73
2022/01/18 01:51:06;;;;;;;;;;;0.60;99.90;;;;;;5048351;28;20398;-73
2022/01/18 01:53:33;;;;;;;;;;;0.60;99.90;;;;;;5033141;28;19945;-73
2022/01/18 01:55:59;;;;;;;;;;;0.50;99.90;;;;;;5032901;28;19963;-71
2022/01/18 01:58:26;;;;;;;;;;;0.50;99.90;;;;;;5031867;28;19917;-72
2022/01/18 02:00:53;;;;;;;;;;;0.60;99.90;;;;;;5033177;28;19917;-73
2022/01/18 02:03:19;;;;;;;;;;;0.50;99.90;;;;;;5032728;28;19917;-72
2022/01/18 02:05:44;;;;;;;;;;;0.50;99.90;;;;;;5032876;28;19967;-71
2022/01/18 02:08:11;;;;;;;;;;;0.50;99.90;;;;;;5033178;28;19917;-72
2022/01/18 02:10:38;;;;;;;;;;;0.50;99.90;;;;;;5032989;28;19920;-72
2022/01/18 02:13:04;;;;;;;;;;;0.50;99.90;;;;;;5048219;28;19920;-72
2022/01/18 02:15:30;;;;;;;;;;;0.50;99.90;;;;;;5032642;28;20342;-73
2022/01/18 02:23:27;;;;;;;;;;;0.50;99.90;;;;;;5032964;28;19920;-73
2022/01/18 02:25:52;;;;;;;;;;;0.40;99.90;;;;;;5031933;28;19917;-73
2022/01/18 02:28:18;;;;;;;;;;;0.40;99.90;;;;;;5031626;28;19967;-73
2022/01/18 02:30:45;;;;;;;;;;;0.50;99.90;;;;;;5032955;28;19917;-74
2022/01/18 02:33:11;;;;;;;;;;;0.50;99.90;;;;;;5031101;28;19920;-73
2022/01/18 02:35:37;;;;;;;;;;;0.40;99.90;;;;;;5032459;28;19920;-73
2022/01/18 02:38:04;;;;;;;;;;;0.40;99.90;;;;;;5035952;28;19925;-73
2022/01/18 02:40:30;;;;;;;;;;;0.50;99.90;;;;;;5035072;28;19917;-73
2022/01/18 02:42:59;;;;;;;;;;;0.50;99.90;;;;;;5034828;28;19917;-73
2022/01/18 02:45:26;;;;;;;;;;;0.50;99.90;;;;;;5035902;28;19913;-73
2022/01/18 02:47:52;;;;;;;;;;;0.50;99.90;;;;;;5034859;28;20365;-73
2022/01/18 02:50:18;;;;;;;;;;;0.50;99.90;;;;;;5035965;28;19913;-73
2022/01/18 02:52:43;;;;;;;;;;;0.60;99.90;;;;;;5034908;28;19920;-73
2022/01/18 02:55:09;;;;;;;;;;;0.70;99.90;;;;;;5036141;28;19924;-73
2022/01/18 02:57:43;;;;;;;;;;;0.70;99.90;;;;;;5034702;28;19921;-73
2022/01/18 03:00:25;;;;;;;;;;;0.80;99.90;;;;;;5035945;28;19917;-72
2022/01/18 03:05:34;;;;;;;;;;;0.70;99.90;;;;;;5035812;28;20348;-73
2022/01/18 03:08:02;;;;;;;;;;;0.60;99.90;;;;;;5035346;28;20187;-73
2022/01/18 03:10:28;;;;;;;;;;;0.60;99.90;;;;;;5035812;28;20352;-73
2022/01/18 03:12:53;;;;;;;;;;;0.50;99.90;;;;;;5035554;28;19913;-73
2022/01/18 03:15:19;;;;;;;;;;;0.50;99.90;;;;;;5035528;28;20008;-74
2022/01/18 03:17:44;;;;;;;;;;;0.60;99.90;;;;;;5035631;28;19922;-73
2022/01/18 03:20:12;;;;;;;;;;;0.60;99.90;;;;;;5035338;28;19929;-71
2022/01/18 03:22:38;;;;;;;;;;;0.60;99.90;;;;;;5034136;28;19913;-73
2022/01/18 03:25:25;;;;;;;;;;;0.60;99.90;;;;;;5035099;28;20012;-73
2022/01/18 03:28:05;;;;;;;;;;;0.60;99.90;;;;;;5035013;28;20004;-73
2022/01/18 03:30:38;;;;;;;;;;;0.70;99.90;;;;;;5035064;28;19959;-73
2022/01/18 03:33:05;;;;;;;;;;;0.70;99.90;;;;;;5035206;28;19914;-73
2022/01/18 03:35:30;;;;;;;;;;;0.60;99.90;;;;;;5033760;28;19913;-72
2022/01/18 03:37:56;;;;;;;;;;;0.70;99.90;;;;;;5035224;28;19925;-73
2022/01/18 03:40:21;;;;;;;;;;;0.70;99.90;;;;;;5034310;28;19939;-71
2022/01/18 03:42:48;;;;;;;;;;;0.70;99.90;;;;;;5035200;28;19924;-73
2022/01/18 03:45:15;;;;;;;;;;;0.80;99.90;;;;;;5034014;28;20004;-71
2022/01/18 03:47:42;;;;;;;;;;;0.80;99.90;;;;;;5035000;28;19917;-73
2022/01/18 03:50:09;;;;;;;;;;;0.80;99.90;;;;;;5034918;28;19917;-73
2022/01/18 03:52:34;;;;;;;;;;;0.80;99.90;;;;;;5034930;28;19979;-73
2022/01/18 03:55:00;;;;;;;;;;;0.80;99.90;;;;;;5034838;28;19924;-71
2022/01/18 03:57:26;;;;;;;;;;;0.80;99.90;;;;;;5033741;28;19921;-72
2022/01/18 03:59:52;;;;;;;;;;;0.80;99.90;;;;;;5033605;28;19917;-71
2022/01/18 04:02:17;;;;;;;;;;;0.80;99.90;;;;;;5034490;28;20554;-73
2022/01/18 04:04:43;;;;;;;;;;;0.70;99.90;;;;;;5034376;28;19924;-73
2022/01/18 04:07:09;;;;;;;;;;;0.80;99.90;;;;;;5034523;28;20461;-71
2022/01/18 04:09:35;;;;;;;;;;;0.80;99.90;;;;;;5033315;28;19984;-72
2022/01/18 04:12:01;;;;;;;;;;;0.70;99.90;;;;;;5034587;28;20008;-72
2022/01/18 04:14:26;;;;;;;;;;;0.80;99.90;;;;;;5033636;28;19953;-72
2022/01/18 04:27:36;;;;;;;;;;;0.80;99.90;;;;;;5034115;28;19919;-73
2022/01/18 04:30:02;;;;;;;;;;;0.80;99.90;;;;;;5034159;28;19981;-72
2022/01/18 04:32:28;;;;;;;;;;;0.70;99.90;;;;;;5034209;28;20008;-73
2022/01/18 04:34:53;;;;;;;;;;;0.80;99.90;;;;;;5032921;28;19948;-73
2022/01/18 04:37:19;;;;;;;;;;;0.80;99.90;;;;;;5032348;28;20008;-72
2022/01/18 04:39:46;;;;;;;;;;;0.90;99.90;;;;;;5033825;28;19951;-72
2022/01/18 04:42:34;;;;;;;;;;;0.90;99.90;;;;;;5032765;28;19978;-72
2022/01/18 04:50:28;;;;;;;;;;;0.90;99.90;;;;;;5033958;28;20279;-72
2022/01/18 04:52:54;;;;;;;;;;;0.90;99.90;;;;;;5033781;28;19913;-72
2022/01/18 04:55:20;;;;;;;;;;;0.70;99.90;;;;;;5033691;28;19921;-72
2022/01/18 04:57:52;;;;;;;;;;;0.70;99.90;;;;;;5031978;28;19931;-72
2022/01/18 05:00:18;;;;;;;;;;;0.80;99.90;;;;;;5031496;28;20385;-72
2022/01/18 05:02:43;;;;;;;;;;;0.80;99.90;;;;;;5033700;28;19913;-72
2022/01/18 05:05:11;;;;;;;;;;;0.80;99.90;;;;;;5033771;28;19987;-72
2022/01/18 05:07:38;;;;;;;;;;;0.80;99.90;;;;;;5033423;28;19927;-71
2022/01/18 05:10:04;;;;;;;;;;;0.60;99.90;;;;;;5032159;28;20323;-71
2022/01/18 05:12:42;;;;;;;;;;;0.60;99.90;;;;;;5033736;28;19923;-72
2022/01/18 05:15:32;;;;;;;;;;;0.70;99.90;;;;;;5032598;28;19920;-72
2022/01/18 05:23:08;;;;;;;;;;;0.80;99.90;;;;;;5033375;28;19913;-71
2022/01/18 05:25:34;;;;;;;;;;;0.80;99.90;;;;;;5029365;28;20280;-71
2022/01/18 05:28:00;;;;;;;;;;;0.90;99.90;;;;;;5029372;28;19920;-71
2022/01/18 05:30:27;;;;;;;;;;;1.00;99.90;;;;;;5029760;28;20288;-71
2022/01/18 05:32:52;;;;;;;;;;;1.00;99.90;;;;;;5032781;28;20376;-71
2022/01/18 05:35:19;;;;;;;;;;;0.90;99.90;;;;;;5032345;28;19913;-71
2022/01/18 05:37:45;;;;;;;;;;;1.00;99.90;;;;;;5033213;28;20364;-71
2022/01/18 05:40:11;;;;;;;;;;;0.90;99.90;;;;;;5033252;28;19917;-70
2022/01/18 05:42:37;;;;;;;;;;;0.90;99.90;;;;;;5033175;28;20441;-71
2022/01/18 05:45:03;;;;;;;;;;;0.90;99.90;;;;;;5033180;28;20003;-70
2022/01/18 05:47:28;;;;;;;;;;;0.80;99.90;;;;;;5033168;28;19913;-71
2022/01/18 05:49:54;;;;;;;;;;;0.80;99.90;;;;;;5032584;28;19928;-71
2022/01/18 05:52:20;;;;;;;;;;;0.90;99.90;;;;;;5032621;28;19913;-72
2022/01/18 05:54:46;;;;;;;;;;;0.90;99.90;;;;;;5032661;28;19920;-72
2022/01/18 05:57:11;;;;;;;;;;;0.90;99.90;;;;;;5032944;28;20002;-71
2022/01/18 05:59:39;;;;;;;;;;;1.00;99.90;;;;;;5033130;28;19917;-72
2022/01/18 06:02:16;;;;;;;;;;;0.90;99.90;;;;;;5031561;28;20448;-72
2022/01/18 06:07:26;;;;;;;;;;;0.90;99.90;;;;;;5032664;28;19924;-72
2022/01/18 06:09:53;;;;;;;;;;;0.90;99.90;;;;;;5032868;28;20364;-73
2022/01/18 06:12:19;;;;;;;;;;;0.90;99.90;;;;;;5035283;28;19913;-73
2022/01/18 06:14:45;;;;;;;;;;;1.00;99.90;;;;;;5036925;28;19918;-73
2022/01/18 06:17:11;;;;;;;;;;;0.90;99.90;;;;;;5037096;28;19947;-72
2022/01/18 06:19:36;;;;;;;;;;;1.00;99.90;;;;;;5036784;28;19917;-71
2022/01/18 06:22:02;;;;;;;;;;;1.00;99.90;;;;;;5035916;28;19967;-72
2022/01/18 06:24:27;;;;;;;;;;;1.00;99.90;;;;;;5036171;28;20478;-73
2022/01/18 06:26:53;;;;;;;;;;;1.00;99.90;;;;;;5035848;28;19917;-72
2022/01/18 06:29:20;;;;;;;;;;;1.30;99.90;;;;;;5036621;28;19914;-72
2022/01/18 06:31:46;;;;;;;;;;;1.30;99.90;;;;;;5035933;28;19995;-73
2022/01/18 06:34:14;;;;;;;;;;;1.20;99.90;;;;;;5035545;28;19955;-72
2022/01/18 06:36:40;;;;;;;;;;;1.10;99.90;;;;;;5035515;28;19975;-72
2022/01/18 06:39:06;;;;;;;;;;;1.10;99.90;;;;;;5034530;28;19982;-72
2022/01/18 06:41:32;;;;;;;;;;;1.10;99.90;;;;;;5035893;28;19913;-72
2022/01/18 06:43:57;;;;;;;;;;;1.20;99.90;;;;;;5024660;28;20281;-72
2022/01/18 06:46:23;;;;;;;;;;;1.20;99.90;;;;;;5036397;28;20288;-72
2022/01/18 06:48:49;;;;;;;;;;;1.20;99.90;;;;;;5036020;28;19952;-72
2022/01/18 06:51:15;;;;;;;;;;;1.20;99.90;;;;;;5036241;28;19967;-72
2022/01/18 06:53:45;;;;;;;;;;;1.20;99.90;;;;;;5036266;28;19917;-72
2022/01/18 06:56:12;;;;;;;;;;;1.20;99.90;;;;;;5035967;28;19913;-73
2022/01/18 06:58:38;;;;;;;;;;;1.00;99.90;;;;;;5034545;28;19917;-72
2022/01/18 07:01:04;;;;;;;;;;;1.00;99.90;;;;;;5034043;28;19913;-72
2022/01/18 07:03:29;;;;;;;;;;;0.90;99.90;;;;;;5034824;28;19928;-70
2022/01/18 07:05:55;;;;;;;;;;;0.80;99.90;;;;;;5035882;28;19917;-71
2022/01/18 07:08:20;;;;;;;;;;;0.90;99.90;;;;;;5034567;28;19913;-71
2022/01/18 07:10:46;;;;;;;;;;;0.90;99.90;;;;;;5035337;28;19913;-72
2022/01/18 07:13:14;;;;;;;;;;;1.00;99.90;;;;;;5034535;28;20471;-72
2022/01/18 07:15:39;;;;;;;;;;;1.00;99.90;;;;;;5035557;28;20441;-72
2022/01/18 07:18:06;;;;;;;;;;;1.10;99.90;;;;;;5034731;28;19925;-72
2022/01/18 07:20:32;;;;;;;;;;;1.00;99.90;;;;;;5035584;28;19913;-72
2022/01/18 07:22:58;;;;;;;;;;;1.00;99.90;;;;;;5034739;28;19920;-72
2022/01/18 07:25:25;;;;;;;;;;;1.00;99.90;;;;;;5035031;28;19913;-71
2022/01/18 07:27:51;;;;;;;;;;;1.10;99.90;;;;;;5034630;28;19913;-71
2022/01/18 07:30:17;;;;;;;;;;;1.10;99.90;;;;;;5034680;28;20384;-71
2022/01/18 07:32:42;;;;;;;;;;;1.10;99.90;;;;;;5035560;28;19917;-72
2022/01/18 07:35:09;;;;;;;;;;;1.00;99.90;;;;;;5035484;28;19940;-71
2022/01/18 07:37:34;;;;;;;;;;;1.10;99.90;;;;;;5034624;28;20022;-71
2022/01/18 07:40:00;;;;;;;;;;;1.10;99.90;;;;;;5035338;28;19960;-71
2022/01/18 07:42:26;;;;;;;;;;;1.10;99.90;;;;;;5034169;28;19917;-71
2022/01/18 07:44:52;;;;;;;;;;;1.20;99.90;;;;;;5035103;28;19913;-71
2022/01/18 07:47:18;;;;;;;;;;;1.10;99.90;;;;;;5035233;28;19955;-71
2022/01/18 07:49:44;;;;;;;;;;;1.20;99.90;;;;;;5033871;28;19913;-71
2022/01/18 07:52:09;;;;;;;;;;;1.20;99.90;;;;;;5035146;28;19923;-72
2022/01/18 07:54:35;;;;;;;;;;;1.20;99.90;;;;;;5035026;28;19917;-71
2022/01/18 07:57:00;;;;;;;;;;;1.20;99.90;;;;;;5033615;28;19921;-71
2022/01/18 07:59:27;;;;;;;;;;;1.20;99.90;;;;;;5035126;28;19928;-71
2022/01/18 08:01:53;;;;;;;;;;;1.20;99.90;;;;;;5035006;28;19920;-72
2022/01/18 08:04:19;;;;;;;;;;;1.20;99.90;;;;;;5034886;28;19913;-71
2022/01/18 08:06:45;;;;;;;;;;;1.30;99.90;;;;;;5034813;28;19924;-71
2022/01/18 08:09:10;;;;;;;;;;;1.40;99.90;;;;;;5034706;28;19917;-71
2022/01/18 08:11:36;;;;;;;;;;;1.40;99.90;;;;;;5035022;28;20026;-71
2022/01/18 08:14:03;;;;;;;;;;;1.50;99.90;;;;;;5034759;28;20311;-71
2022/01/18 08:18:56;;;;;;;;;;;1.60;99.90;;;;;;5035024;28;19944;-71
2022/01/18 08:21:21;;;;;;;;;;;1.60;99.90;;;;;;5033291;28;19913;-71
2022/01/18 08:23:47;;;;;;;;;;;1.50;99.90;;;;;;5033235;28;20287;-71
2022/01/18 08:26:13;;;;;;;;;;;1.50;99.90;;;;;;5033433;28;19913;-71
2022/01/18 08:28:39;;;;;;;;;;;1.40;99.90;;;;;;5034447;28;19959;-71
2022/01/18 08:31:05;;;;;;;;;;;1.40;99.90;;;;;;5034427;28;19936;-71
2022/01/18 08:33:34;;;;;;;;;;;1.40;99.90;;;;;;5032495;28;19913;-71
2022/01/18 08:36:00;;;;;;;;;;;1.40;99.90;;;;;;5032636;28;19917;-71
2022/01/18 08:38:27;;;;;;;;;;;1.40;99.90;;;;;;5033905;28;19936;-71
2022/01/18 08:40:54;;;;;;;;;;;1.40;99.90;;;;;;5031207;28;20323;-71
2022/01/18 08:43:20;;;;;;;;;;;1.40;99.90;;;;;;5033839;28;19913;-71
2022/01/18 08:45:46;;;;;;;;;;;1.30;99.90;;;;;;5032566;28;19943;-71
2022/01/18 08:48:11;;;;;;;;;;;1.20;99.90;;;;;;5032837;28;20360;-71
2022/01/18 08:50:37;;;;;;;;;;;1.20;99.90;;;;;;5032781;28;19920;-71
2022/01/18 08:53:03;;;;;;;;;;;1.20;99.90;;;;;;5032638;28;20411;-71
2022/01/18 08:55:29;;;;;;;;;;;1.20;99.90;;;;;;5033941;28;19967;-71
2022/01/18 08:57:55;;;;;;;;;;;1.20;99.90;;;;;;5033988;28;19921;-71
2022/01/18 09:00:20;;;;;;;;;;;1.30;99.90;;;;;;5033517;28;20349;-71
2022/01/18 09:02:47;;;;;;;;;;;1.30;99.90;;;;;;5032653;28;19913;-71
2022/01/18 09:05:12;;;;;;;;;;;1.30;99.90;;;;;;5033837;28;19917;-71
2022/01/18 09:07:39;;;;;;;;;;;1.30;99.90;;;;;;5032721;28;20614;-72
2022/01/18 09:10:10;;;;;;;;;;;1.40;99.90;;;;;;5032302;28;19914;-72
2022/01/18 09:12:36;;;;;;;;;;;1.50;99.90;;;;;;5032210;28;20011;-72
2022/01/18 09:15:04;;;;;;;;;;;1.50;99.90;;;;;;5033457;28;19948;-72
2022/01/18 09:17:31;;;;;;;;;;;1.50;99.90;;;;;;5033263;28;19925;-72
2022/01/18 09:19:58;;;;;;;;;;;1.60;99.90;;;;;;5033243;28;19913;-72
2022/01/18 09:22:23;;;;;;;;;;;1.60;99.90;;;;;;5033597;28;19913;-72
2022/01/18 09:24:49;;;;;;;;;;;1.60;99.90;;;;;;5033629;28;19928;-72
2022/01/18 09:27:15;;;;;;;;;;;1.60;99.90;;;;;;5033580;28;20361;-72
2022/01/18 09:29:41;;;;;;;;;;;1.60;99.90;;;;;;5027752;28;19928;-72
2022/01/18 09:32:07;;;;;;;;;;;1.60;99.90;;;;;;5031856;28;19914;-72
2022/01/18 09:34:32;;;;;;;;;;;1.60;99.90;;;;;;5047011;28;19913;-72
2022/01/18 09:36:58;;;;;;;;;;;1.60;99.90;;;;;;5031137;28;19921;-72
2022/01/18 09:39:25;;;;;;;;;;;1.60;99.90;;;;;;5047070;28;19913;-72
2022/01/18 09:41:52;;;;;;;;;;;1.60;99.90;;;;;;5031130;28;19960;-72
2022/01/18 09:44:18;;;;;;;;;;;1.70;99.90;;;;;;5031505;28;20008;-72
2022/01/18 09:46:44;;;;;;;;;;;1.80;99.90;;;;;;5032831;28;19913;-72
2022/01/18 09:49:10;;;;;;;;;;;1.80;99.90;;;;;;5035743;28;19975;-72
2022/01/18 09:51:35;;;;;;;;;;;1.80;99.90;;;;;;5034609;28;19913;-72
2022/01/18 09:54:01;;;;;;;;;;;1.90;99.90;;;;;;5050794;28;19913;-72
2022/01/18 09:56:28;;;;;;;;;;;1.90;99.90;;;;;;5035101;28;20349;-72
2022/01/18 09:58:55;;;;;;;;;;;1.90;99.90;;;;;;5035062;28;19923;-72
2022/01/18 10:01:21;;;;;;;;;;;1.90;99.90;;;;;;5035512;28;19960;-72
2022/01/18 10:03:46;;;;;;;;;;;2.00;99.90;;;;;;5036155;28;19949;-72
2022/01/18 10:06:12;;;;;;;;;;;2.00;99.90;;;;;;5034123;28;19921;-72
2022/01/18 10:08:42;;;;;;;;;;;2.10;99.90;;;;;;5033863;28;20000;-72
2022/01/18 10:11:17;;;;;;;;;;;2.10;99.90;;;;;;5017754;28;19945;-72
2022/01/18 10:13:48;;;;;;;;;;;2.00;99.90;;;;;;5035051;28;20388;-72
2022/01/18 10:16:16;;;;;;;;;;;1.90;99.90;;;;;;5035069;28;19975;-72
2022/01/18 10:18:48;;;;;;;;;;;1.90;99.90;;;;;;5034912;28;20379;-72
2022/01/18 10:21:15;;;;;;;;;;;1.90;99.90;;;;;;5033803;28;20280;-72
2022/01/18 10:23:48;;;;;;;;;;;1.90;99.90;;;;;;5033525;28;19917;-72
2022/01/18 10:26:20;;;;;;;;;;;2.10;99.90;;;;;;5033669;28;19940;-72
2022/01/18 10:28:53;;;;;;;;;;;2.10;99.90;;;;;;5033121;28;19925;-72
2022/01/18 10:31:23;;;;;;;;;;;2.20;99.90;;;;;;5033511;28;19917;-71
2022/01/18 10:34:11;;;;;;;;;;;2.20;99.90;;;;;;5033542;28;19913;-72
2022/01/18 10:36:55;;;;;;;;;;;2.20;99.90;;;;;;5033917;28;20010;-72
2022/01/18 10:39:22;;;;;;;;;;;2.30;99.90;;;;;;5035244;28;19948;-72
2022/01/18 10:41:48;;;;;;;;;;;2.30;99.90;;;;;;5035291;28;20002;-72
2022/01/18 10:44:15;;;;;;;;;;;2.30;99.90;;;;;;5036502;28;19920;-72
2022/01/18 10:46:45;;;;;;;;;;;2.40;99.90;;;;;;5036278;28;20356;-72
2022/01/18 10:49:10;;;;;;;;;;;2.40;99.90;;;;;;5036594;28;19917;-72
2022/01/18 10:51:38;;;;;;;;;;;2.50;99.90;;;;;;5036189;28;20395;-71
2022/01/18 10:54:06;;;;;;;;;;;2.50;99.90;;;;;;5036296;28;19914;-71
2022/01/18 10:56:45;;;;;;;;;;;2.50;99.90;;;;;;5035766;28;19917;-72
2022/01/18 10:59:22;;;;;;;;;;;2.40;99.90;;;;;;5035823;28;19923;-72
2022/01/18 11:02:04;;;;;;;;;;;2.30;99.90;;;;;;5035986;28;19921;-72
2022/01/18 11:04:30;;;;;;;;;;;2.20;99.90;;;;;;5035945;28;19913;-72
2022/01/18 11:06:57;;;;;;;;;;;2.20;99.90;;;;;;5035852;28;19921;-72
2022/01/18 11:09:23;;;;;;;;;;;2.20;99.90;;;;;;5035622;28;19944;-72
2022/01/18 11:11:49;;;;;;;;;;;2.30;99.90;;;;;;5035649;28;19913;-72
2022/01/18 11:14:18;;;;;;;;;;;2.30;99.90;;;;;;5035755;28;19959;-72
2022/01/18 11:16:44;;;;;;;;;;;2.40;99.90;;;;;;5035622;28;19921;-72
2022/01/18 11:19:30;;;;;;;;;;;2.40;99.90;;;;;;5035416;28;20004;-72
2022/01/18 11:21:58;;;;;;;;;;;2.40;99.90;;;;;;5035823;28;19919;-72
2022/01/18 11:24:24;;;;;;;;;;;2.40;99.90;;;;;;5035699;28;19913;-72
2022/01/18 11:26:49;;;;;;;;;;;2.50;99.90;;;;;;5035468;28;19958;-72
2022/01/18 11:29:17;;;;;;;;;;;2.50;99.90;;;;;;5035226;28;20436;-72
2022/01/18 11:31:50;;;;;;;;;;;2.60;99.90;;;;;;5035237;28;19921;-72
2022/01/18 11:34:34;;;;;;;;;;;2.50;99.90;;;;;;5034303;28;20264;-72
2022/01/18 11:37:08;;;;;;;;;;;2.50;99.90;;;;;;5035197;28;20304;-72
2022/01/18 11:39:33;;;;;;;;;;;2.50;99.90;;;;;;5035037;28;19924;-72
2022/01/18 11:42:10;;;;;;;;;;;2.50;99.90;;;;;;5035238;28;19913;-72
2022/01/18 11:44:36;;;;;;;;;;;2.40;99.90;;;;;;5034270;28;20055;-72
2022/01/18 11:47:02;;;;;;;;;;;2.30;99.90;;;;;;5033934;28;19972;-72
2022/01/18 11:49:30;;;;;;;;;;;2.20;99.90;;;;;;5033985;28;19913;-72
2022/01/18 11:52:05;;;;;;;;;;;2.30;99.90;;;;;;5033741;28;20350;-72
2022/01/18 11:54:37;;;;;;;;;;;2.20;99.90;;;;;;5034808;28;20450;-72
2022/01/18 11:57:23;;;;;;;;;;;2.20;99.90;;;;;;5033775;28;19917;-72
2022/01/18 11:59:49;;;;;;;;;;;2.10;99.90;;;;;;5034862;28;19920;-72
2022/01/18 12:02:29;;;;;;;;;;;2.00;99.90;;;;;;5034897;28;19917;-72
2022/01/18 12:04:57;;;;;;;;;;;1.90;99.90;;;;;;5034840;28;20020;-72
2022/01/18 12:07:34;;;;;;;;;;;1.90;99.90;;;;;;5034803;28;19940;-72
2022/01/18 12:10:08;;;;;;;;;;;2.00;99.90;;;;;;5032401;28;19952;-72
2022/01/18 12:12:40;;;;;;;;;;;2.10;99.90;;;;;;5034657;28;19913;-72
2022/01/18 12:15:15;;;;;;;;;;;2.20;99.90;;;;;;5034767;28;19917;-72
2022/01/18 12:17:51;;;;;;;;;;;2.10;99.90;;;;;;5033290;28;20273;-72
2022/01/18 12:20:35;;;;;;;;;;;2.20;99.90;;;;;;5034655;28;19920;-72
2022/01/18 12:23:17;;;;;;;;;;;2.30;99.90;;;;;;5033252;28;20479;-72
2022/01/18 12:28:47;;;;;;;;;;;2.20;99.90;;;;;;5034714;28;19913;-72
2022/01/18 12:34:29;;;;;;;;;;;2.30;99.90;;;;;;5026618;28;20368;-72
2022/01/18 12:36:54;;;;;;;;;;;2.20;99.90;;;;;;5033799;28;19917;-74
2022/01/18 12:39:20;;;;;;;;;;;2.30;99.90;;;;;;5032744;28;19948;-73
2022/01/18 12:41:50;;;;;;;;;;;2.30;99.90;;;;;;5032727;28;20375;-73
2022/01/18 12:44:22;;;;;;;;;;;2.40;99.90;;;;;;5034288;28;19917;-72
2022/01/18 12:46:58;;;;;;;;;;;2.20;99.90;;;;;;5034183;28;19956;-72
2022/01/18 12:49:24;;;;;;;;;;;2.20;99.90;;;;;;5034181;28;20288;-72
2022/01/18 12:51:56;;;;;;;;;;;2.20;99.90;;;;;;5034177;28;20008;-72
2022/01/18 12:54:35;;;;;;;;;;;2.20;99.90;;;;;;5034052;28;19949;-71
2022/01/18 12:57:27;;;;;;;;;;;2.10;99.90;;;;;;5032689;28;19921;-72
2022/01/18 13:00:04;;;;;;;;;;;2.60;99.90;;;;;;5030792;28;19917;-72
2022/01/18 13:02:30;;;;;;;;;;;2.30;99.90;;;;;;5021742;28;20396;-72
2022/01/18 13:04:59;;;;;;;;;;;2.30;99.90;;;;;;5031088;28;19968;-72
2022/01/18 13:07:25;;;;;;;;;;;2.30;99.90;;;;;;5032073;28;19920;-72
2022/01/18 13:10:09;;;;;;;;;;;2.20;99.90;;;;;;5029823;28;19921;-72
2022/01/18 13:12:35;;;;;;;;;;;2.40;99.90;;;;;;5030579;28;19971;-72
2022/01/18 13:15:04;;;;;;;;;;;2.40;99.90;;;;;;5030758;28;20383;-71
2022/01/18 13:23:14;;;;;;;;;;;2.50;99.90;;;;;;5031458;28;20379;-72
2022/01/18 13:25:47;;;;;;;;;;;2.60;99.90;;;;;;5031166;28;19917;-73
2022/01/18 13:28:13;;;;;;;;;;;2.60;99.90;;;;;;5030286;28;20372;-73
2022/01/18 13:30:39;;;;;;;;;;;2.60;99.90;;;;;;5031366;28;19927;-73
2022/01/18 13:33:06;;;;;;;;;;;2.70;99.90;;;;;;5032030;28;20009;-73
2022/01/18 13:35:32;;;;;;;;;;;2.70;99.90;;;;;;5031386;28;19940;-73
2022/01/18 13:37:59;;;;;;;;;;;2.80;99.90;;;;;;5031557;28;19925;-73
2022/01/18 13:40:26;;;;;;;;;;;2.70;99.90;;;;;;5031386;28;19920;-72
2022/01/18 13:43:00;;;;;;;;;;;2.70;99.90;;;;;;5031049;28;20352;-73
2022/01/18 13:45:26;;;;;;;;;;;2.60;99.90;;;;;;5031231;28;20395;-73
2022/01/18 13:48:02;;;;;;;;;;;2.60;99.90;;;;;;5030425;28;19921;-73
2022/01/18 13:50:40;;;;;;;;;;;2.60;99.90;;;;;;5031150;28;19917;-73
2022/01/18 13:53:12;;;;;;;;;;;2.50;99.90;;;;;;5031826;28;20007;-72
2022/01/18 13:55:42;;;;;;;;;;;2.50;99.90;;;;;;5031473;28;19913;-72
2022/01/18 13:58:08;;;;;;;;;;;2.50;99.90;;;;;;5031391;28;19921;-72
2022/01/18 14:00:34;;;;;;;;;;;2.50;99.90;;;;;;5031530;28;19939;-72
2022/01/18 14:02:59;;;;;;;;;;;2.40;99.90;;;;;;5030846;28;19913;-72
2022/01/18 14:05:25;;;;;;;;;;;2.50;99.90;;;;;;5029190;28;19928;-72
2022/01/18 14:08:09;;;;;;;;;;;2.40;99.90;;;;;;5030943;28;19914;-72
2022/01/18 14:10:35;;;;;;;;;;;2.40;99.90;;;;;;5032791;28;20257;-72
2022/01/18 14:13:00;;;;;;;;;;;2.50;99.90;;;;;;5032935;28;19920;-72
2022/01/18 14:15:39;;;;;;;;;;;2.60;99.90;;;;;;5032825;28;20343;-72
2022/01/18 14:18:05;;;;;;;;;;;2.70;99.90;;;;;;5032994;28;20334;-72
2022/01/18 14:20:31;;;;;;;;;;;2.80;99.90;;;;;;5033045;28;19996;-73
2022/01/18 14:22:57;;;;;;;;;;;2.80;99.90;;;;;;5032923;28;19913;-73
2022/01/18 14:25:27;;;;;;;;;;;2.80;99.90;;;;;;5032883;28;19921;-73
2022/01/18 14:27:52;;;;;;;;;;;2.80;99.90;;;;;;5032835;28;19919;-73
2022/01/18 14:30:19;;;;;;;;;;;2.70;99.90;;;;;;5032578;28;19921;-73
2022/01/18 14:32:45;;;;;;;;;;;2.60;99.90;;;;;;5034280;28;19952;-73
2022/01/18 14:35:18;;;;;;;;;;;2.60;99.90;;;;;;5036448;28;19914;-73
2022/01/18 14:37:44;;;;;;;;;;;2.50;99.90;;;;;;5034305;28;19932;-72
2022/01/18 14:40:29;;;;;;;;;;;2.40;99.90;;;;;;5032510;28;19921;-73
2022/01/18 14:42:59;;;;;;;;;;;2.50;99.90;;;;;;5032908;28;19913;-73
2022/01/18 14:47:58;;;;;;;;;;;2.50;99.90;;;;;;5036280;28;19927;-73
2022/01/18 14:50:24;;;;;;;;;;;2.60;99.90;;;;;;5036369;28;19913;-72
2022/01/18 14:52:51;;;;;;;;;;;2.60;99.90;;;;;;5035138;28;19921;-73
2022/01/18 14:55:17;;;;;;;;;;;2.50;99.90;;;;;;5051876;28;19917;-72
2022/01/18 14:57:43;;;;;;;;;;;2.50;99.90;;;;;;5034744;28;20415;-73
2022/01/18 15:00:10;;;;;;;;;;;2.50;99.90;;;;;;5035809;28;19944;-73
2022/01/18 15:02:36;;;;;;;;;;;2.50;99.90;;;;;;5035894;28;19917;-73
2022/01/18 15:05:02;;;;;;;;;;;2.40;99.90;;;;;;5035827;28;19947;-73
2022/01/18 15:07:28;;;;;;;;;;;2.40;99.90;;;;;;5035885;28;19955;-73
2022/01/18 15:09:54;;;;;;;;;;;2.40;99.90;;;;;;5035889;28;19913;-73
2022/01/18 15:12:19;;;;;;;;;;;2.50;99.90;;;;;;5035889;28;19917;-73
2022/01/18 15:14:45;;;;;;;;;;;2.50;99.90;;;;;;5034628;28;19972;-73
2022/01/18 15:17:11;;;;;;;;;;;2.40;99.90;;;;;;5034344;28;20028;-73
2022/01/18 15:19:37;;;;;;;;;;;2.40;99.90;;;;;;5035573;28;20276;-73
2022/01/18 15:22:07;;;;;;;;;;;2.40;99.90;;;;;;5035854;28;19920;-73
2022/01/18 15:24:33;;;;;;;;;;;2.40;99.90;;;;;;5035545;28;19914;-73
2022/01/18 15:26:59;;;;;;;;;;;2.40;99.90;;;;;;5035636;28;19940;-73
2022/01/18 15:29:28;;;;;;;;;;;2.30;99.90;;;;;;5035710;28;19913;-73
2022/01/18 15:31:54;;;;;;;;;;;2.30;99.90;;;;;;5035638;28;19913;-73
2022/01/18 15:34:20;;;;;;;;;;;2.30;99.90;;;;;;5035522;28;19963;-73
2022/01/18 15:36:46;;;;;;;;;;;2.30;99.90;;;;;;5035333;28;19919;-73
2022/01/18 15:39:11;;;;;;;;;;;2.30;99.90;;;;;;5035689;28;20000;-73
2022/01/18 15:41:37;;;;;;;;;;;2.30;99.90;;;;;;5035205;28;19917;-73
2022/01/18 15:44:03;;;;;;;;;;;2.40;99.90;;;;;;5035162;28;19913;-73
2022/01/18 15:46:28;;;;;;;;;;;2.30;99.90;;;;;;5034119;28;19913;-73
2022/01/18 15:48:54;;;;;;;;;;;2.30;99.90;;;;;;5035288;28;19958;-73
2022/01/18 15:51:20;;;;;;;;;;;2.40;99.90;;;;;;5034283;28;19917;-73
2022/01/18 15:53:46;;;;;;;;;;;2.40;99.90;;;;;;5034865;28;20432;-73